createdAt,value
2016-08-08T00:00:29.003Z,53.10
2016-08-08T00:01:21.058Z,53.40
2016-08-08T00:02:23.356Z,53.40
2016-08-08T00:03:13.498Z,53.20
2016-08-08T00:04:21.140Z,53.30
2016-08-08T00:05:23.823Z,53.30
2016-08-08T00:06:23.377Z,53.30
2016-08-08T00:07:16.491Z,53.30
2016-08-08T00:08:12.669Z,53.40
2016-08-08T00:09:30.334Z,53.30
2016-08-08T00:10:28.226Z,53.30
2016-08-08T00:11:22.432Z,52.10
2016-08-08T00:12:22.769Z,53.00
2016-08-08T00:13:22.907Z,52.50
2016-08-08T00:14:21.703Z,52.40
2016-08-08T00:15:23.471Z,52.30
2016-08-08T00:16:23.755Z,52.40
2016-08-08T00:17:23.143Z,52.30
2016-08-08T00:18:15.827Z,52.50
2016-08-08T00:19:20.901Z,52.50
2016-08-08T00:20:27.844Z,52.20
2016-08-08T00:21:22.485Z,52.60
2016-08-08T00:22:23.356Z,52.00
2016-08-08T00:23:14.347Z,52.10
2016-08-08T00:24:14.660Z,52.50
2016-08-08T00:25:28.244Z,52.10
2016-08-08T00:26:21.254Z,52.20
2016-08-08T00:27:22.520Z,51.70
2016-08-08T00:28:15.139Z,52.00
2016-08-08T00:29:18.985Z,51.90
2016-08-08T00:30:29.975Z,52.00
2016-08-08T00:31:23.356Z,51.80
2016-08-08T00:32:28.363Z,51.80
2016-08-08T00:33:18.247Z,51.90
2016-08-08T00:34:23.025Z,52.00
2016-08-08T00:35:24.184Z,52.40
2016-08-08T00:36:23.376Z,51.80
2016-08-08T00:37:27.477Z,is
2016-08-08T00:38:12.635Z,is
2016-08-08T00:39:13.959Z,52.10
2016-08-08T00:40:24.260Z,51.60
2016-08-08T00:41:15.598Z,51.90
2016-08-08T00:42:27.708Z,52.00
2016-08-08T00:43:28.239Z,51.60
2016-08-08T00:44:22.346Z,51.80
2016-08-08T00:45:16.589Z,51.80
2016-08-08T00:46:13.863Z,51.70
2016-08-08T00:47:26.881Z,51.70
2016-08-08T00:48:20.436Z,52.00
2016-08-08T00:49:22.880Z,51.60
2016-08-08T00:50:12.706Z,52.00
2016-08-08T00:51:17.068Z,51.90
2016-08-08T00:52:11.720Z,51.60
2016-08-08T00:53:16.524Z,52.00
2016-08-08T00:54:17.304Z,51.90
2016-08-08T00:55:12.050Z,51.70
2016-08-08T00:56:13.300Z,52.20
2016-08-08T00:57:13.905Z,52.00
2016-08-08T00:58:14.211Z,51.90
2016-08-08T00:59:12.316Z,51.50
2016-08-08T01:00:19.577Z,51.70
2016-08-08T01:01:21.749Z,51.50
2016-08-08T01:02:22.845Z,51.60
2016-08-08T01:03:18.663Z,51.70
2016-08-08T01:04:18.157Z,51.90
2016-08-08T01:05:20.820Z,51.60
2016-08-08T01:06:16.381Z,52.00
2016-08-08T01:07:25.702Z,51.60
2016-08-08T01:08:17.038Z,51.60
2016-08-08T01:09:18.612Z,51.60
2016-08-08T01:10:22.590Z,52.00
2016-08-08T01:11:23.340Z,is
2016-08-08T01:12:23.454Z,52.10
2016-08-08T01:13:15.866Z,51.60
2016-08-08T01:14:20.818Z,51.70
2016-08-08T01:15:22.952Z,51.70
2016-08-08T01:16:25.752Z,51.80
2016-08-08T01:17:23.046Z,51.90
2016-08-08T01:18:14.240Z,51.80
2016-08-08T01:19:12.813Z,51.70
2016-08-08T01:20:24.814Z,51.70
2016-08-08T01:21:21.439Z,51.90
2016-08-08T01:22:25.956Z,52.00
2016-08-08T01:23:14.584Z,51.80
2016-08-08T01:24:10.945Z,is
2016-08-08T01:25:27.827Z,51.90
2016-08-08T01:26:28.062Z,51.90
2016-08-08T01:27:24.413Z,51.90
2016-08-08T01:28:22.862Z,51.90
2016-08-08T01:29:17.982Z,52.00
2016-08-08T01:30:20.708Z,51.90
2016-08-08T01:31:19.303Z,52.00
2016-08-08T01:32:22.275Z,51.80
2016-08-08T01:33:16.055Z,is
2016-08-08T01:34:19.142Z,52.00
2016-08-08T01:35:22.983Z,51.90
2016-08-08T01:36:25.080Z,51.90
2016-08-08T01:37:17.826Z,51.80
2016-08-08T01:38:22.539Z,is
2016-08-08T01:39:19.407Z,51.60
2016-08-08T01:40:22.613Z,51.70
2016-08-08T01:41:14.009Z,51.90
2016-08-08T01:42:20.022Z,51.70
2016-08-08T01:43:13.989Z,is
2016-08-08T01:44:27.792Z,51.80
2016-08-08T01:45:19.964Z,51.80
2016-08-08T01:46:34.506Z,51.80
2016-08-08T01:47:30.918Z,51.70
2016-08-08T01:48:17.229Z,51.90
2016-08-08T01:49:17.868Z,52.00
2016-08-08T01:50:20.438Z,51.90
2016-08-08T01:51:25.916Z,52.00
2016-08-08T01:52:28.082Z,52.20
2016-08-08T01:53:13.723Z,52.20
2016-08-08T01:54:20.905Z,51.80
2016-08-08T01:55:28.936Z,52.00
2016-08-08T01:56:27.626Z,52.10
2016-08-08T01:57:22.562Z,52.00
2016-08-08T01:58:12.618Z,52.40
2016-08-08T01:59:16.573Z,52.20
2016-08-08T02:00:17.022Z,52.00
2016-08-08T02:01:16.943Z,51.90
2016-08-08T02:02:13.358Z,52.10
2016-08-08T02:03:14.030Z,52.10
2016-08-08T02:04:12.579Z,52.00
2016-08-08T02:05:23.732Z,51.90
2016-08-08T02:06:19.622Z,52.30
2016-08-08T02:07:25.633Z,52.10
2016-08-08T02:08:13.322Z,52.10
2016-08-08T02:09:22.068Z,52.20
2016-08-08T02:10:27.733Z,52.30
2016-08-08T02:11:22.104Z,52.30
2016-08-08T02:12:27.842Z,52.50
2016-08-08T02:13:15.987Z,52.00
2016-08-08T02:14:13.466Z,52.30
2016-08-08T02:15:28.701Z,52.00
2016-08-08T02:16:28.133Z,52.10
2016-08-08T02:17:27.774Z,52.00
2016-08-08T02:18:16.310Z,52.40
2016-08-08T02:19:29.289Z,51.50
2016-08-08T02:20:24.992Z,51.90
2016-08-08T02:21:28.718Z,52.00
2016-08-08T02:22:27.897Z,52.30
2016-08-08T02:23:17.957Z,52.30
2016-08-08T02:24:23.676Z,52.30
2016-08-08T02:25:11.836Z,is
2016-08-08T02:26:29.361Z,52.10
2016-08-08T02:27:30.484Z,52.20
2016-08-08T02:28:15.675Z,52.30
2016-08-08T02:29:18.085Z,52.20
2016-08-08T02:30:21.141Z,52.00
2016-08-08T02:31:14.263Z,52.30
2016-08-08T02:32:28.051Z,52.50
2016-08-08T02:33:13.599Z,51.90
2016-08-08T02:34:19.673Z,52.00
2016-08-08T02:35:22.648Z,51.90
2016-08-08T02:36:25.855Z,52.10
2016-08-08T02:37:28.766Z,52.10
2016-08-08T02:38:16.601Z,52.10
2016-08-08T02:39:25.116Z,52.00
2016-08-08T02:40:29.188Z,52.50
2016-08-08T02:41:24.366Z,52.30
2016-08-08T02:42:17.461Z,52.40
2016-08-08T02:43:17.299Z,52.50
2016-08-08T02:44:16.916Z,52.00
2016-08-08T02:45:22.190Z,52.00
2016-08-08T02:46:28.067Z,52.00
2016-08-08T02:47:13.979Z,52.70
2016-08-08T02:48:17.940Z,52.00
2016-08-08T02:49:27.163Z,52.10
2016-08-08T02:50:22.172Z,52.50
2016-08-08T02:51:22.124Z,52.10
2016-08-08T02:52:23.057Z,52.40
2016-08-08T02:53:17.136Z,52.20
2016-08-08T02:54:22.790Z,52.10
2016-08-08T02:55:26.329Z,52.30
2016-08-08T02:56:33.895Z,52.50
2016-08-08T02:58:16.228Z,52.50
2016-08-08T02:59:22.699Z,is
2016-08-08T03:00:20.132Z,52.20
2016-08-08T03:01:26.434Z,52.00
2016-08-08T03:02:20.624Z,52.20
2016-08-08T03:03:17.223Z,52.20
2016-08-08T03:04:15.408Z,is
2016-08-08T03:05:13.377Z,52.20
2016-08-08T03:06:15.305Z,52.30
2016-08-08T03:07:13.994Z,is
2016-08-08T03:08:10.095Z,is
2016-08-08T03:09:12.770Z,52.30
2016-08-08T03:10:11.796Z,52.10
2016-08-08T03:11:16.827Z,is
2016-08-08T03:13:16.217Z,52.10
2016-08-08T03:14:24.936Z,52.20
2016-08-08T03:15:17.233Z,52.00
2016-08-08T03:16:28.291Z,52.10
2016-08-08T03:17:23.717Z,52.40
2016-08-08T03:18:14.440Z,is
2016-08-08T03:19:16.998Z,52.20
2016-08-08T03:20:24.837Z,52.40
2016-08-08T03:21:16.260Z,52.50
2016-08-08T03:22:21.051Z,52.40
2016-08-08T03:23:14.222Z,52.20
2016-08-08T03:24:16.479Z,52.50
2016-08-08T03:25:33.510Z,51.50
2016-08-08T03:26:29.387Z,is
2016-08-08T03:27:26.844Z,52.10
2016-08-08T03:28:16.758Z,52.40
2016-08-08T03:29:23.067Z,52.40
2016-08-08T03:30:33.509Z,52.30
2016-08-08T03:31:12.181Z,is
2016-08-08T03:32:25.953Z,52.20
2016-08-08T03:33:11.293Z,is
2016-08-08T03:34:21.126Z,52.40
2016-08-08T03:35:19.417Z,52.40
2016-08-08T03:36:13.119Z,52.10
2016-08-08T03:37:30.239Z,52.30
2016-08-08T03:38:16.403Z,52.10
2016-08-08T03:39:28.445Z,52.50
2016-08-08T03:40:28.091Z,52.70
2016-08-08T03:41:27.155Z,52.30
2016-08-08T03:43:10.937Z,is
2016-08-08T03:44:18.311Z,52.40
2016-08-08T03:45:22.511Z,52.40
2016-08-08T03:46:37.663Z,52.40
2016-08-08T03:47:15.355Z,is
2016-08-08T03:48:15.517Z,52.30
2016-08-08T03:49:23.214Z,52.20
2016-08-08T03:50:27.747Z,52.30
2016-08-08T03:51:20.317Z,52.30
2016-08-08T03:52:20.309Z,52.70
2016-08-08T03:53:13.217Z,is
2016-08-08T03:54:22.020Z,52.50
2016-08-08T03:55:22.497Z,52.40
2016-08-08T03:56:20.789Z,52.20
2016-08-08T03:58:09.420Z,is
2016-08-08T03:59:18.870Z,52.20
2016-08-08T04:00:14.686Z,52.50
2016-08-08T04:01:22.044Z,52.50
2016-08-08T04:02:21.236Z,52.70
2016-08-08T04:03:18.077Z,52.50
2016-08-08T04:04:24.749Z,52.40
2016-08-08T04:05:22.536Z,52.50
2016-08-08T04:06:30.343Z,52.40
2016-08-08T04:07:23.323Z,52.30
2016-08-08T04:08:14.663Z,52.60
2016-08-08T04:09:17.489Z,52.30
2016-08-08T04:10:24.048Z,52.50
2016-08-08T04:11:14.063Z,52.60
2016-08-08T04:12:16.411Z,52.50
2016-08-08T04:13:14.749Z,52.60
2016-08-08T04:14:16.007Z,52.50
2016-08-08T04:15:16.264Z,52.70
2016-08-08T04:16:10.446Z,is
2016-08-08T04:17:16.352Z,52.60
2016-08-08T04:18:12.455Z,52.40
2016-08-08T04:19:21.121Z,is
2016-08-08T04:20:36.021Z,52.60
2016-08-08T04:21:12.805Z,is
2016-08-08T04:22:26.013Z,52.50
2016-08-08T04:23:18.165Z,52.60
2016-08-08T04:24:22.178Z,52.30
2016-08-08T04:25:21.045Z,52.50
2016-08-08T04:26:20.825Z,52.40
2016-08-08T04:27:20.756Z,52.50
2016-08-08T04:28:13.091Z,52.50
2016-08-08T04:29:21.951Z,52.50
2016-08-08T04:30:20.955Z,52.60
2016-08-08T04:31:12.794Z,53.20
2016-08-08T04:32:24.160Z,52.60
2016-08-08T04:33:17.448Z,52.60
2016-08-08T04:34:22.278Z,52.80
2016-08-08T04:35:21.977Z,52.70
2016-08-08T04:36:28.909Z,52.50
2016-08-08T04:37:11.236Z,is
2016-08-08T04:38:17.036Z,52.60
2016-08-08T04:39:18.470Z,52.70
2016-08-08T04:40:18.558Z,52.60
2016-08-08T04:41:21.446Z,52.60
2016-08-08T04:42:16.578Z,is
2016-08-08T04:43:19.862Z,52.60
2016-08-08T04:44:24.878Z,is
2016-08-08T04:45:17.188Z,52.40
2016-08-08T04:46:21.858Z,52.50
2016-08-08T04:47:30.094Z,52.80
2016-08-08T04:48:17.610Z,52.70
2016-08-08T04:49:21.639Z,52.60
2016-08-08T04:50:22.730Z,52.70
2016-08-08T04:51:12.950Z,is
2016-08-08T04:52:27.219Z,52.60
2016-08-08T04:53:22.464Z,52.70
2016-08-08T04:54:14.289Z,52.70
2016-08-08T04:55:31.485Z,52.60
2016-08-08T04:56:13.153Z,52.00
2016-08-08T04:57:22.982Z,52.50
2016-08-08T04:58:18.279Z,52.50
2016-08-08T04:59:13.629Z,52.60
2016-08-08T05:00:27.772Z,52.60
2016-08-08T05:01:27.000Z,52.70
2016-08-08T05:02:22.369Z,52.70
2016-08-08T05:03:14.692Z,52.70
2016-08-08T05:04:18.811Z,52.60
2016-08-08T05:05:22.041Z,is
2016-08-08T05:06:14.093Z,52.70
2016-08-08T05:07:23.295Z,52.70
2016-08-08T05:08:18.008Z,52.70
2016-08-08T05:09:18.819Z,52.60
2016-08-08T05:10:14.089Z,is
2016-08-08T05:11:26.380Z,52.60
2016-08-08T05:12:26.539Z,52.70
2016-08-08T05:13:16.898Z,52.60
2016-08-08T05:14:13.777Z,52.70
2016-08-08T05:15:12.119Z,is
2016-08-08T05:16:24.579Z,52.70
2016-08-08T05:17:21.160Z,52.60
2016-08-08T05:18:17.249Z,52.70
2016-08-08T05:19:15.255Z,52.70
2016-08-08T05:20:14.193Z,52.70
2016-08-08T05:21:16.050Z,52.80
2016-08-08T05:22:12.495Z,52.70
2016-08-08T05:23:14.013Z,52.60
2016-08-08T05:24:14.861Z,52.70
2016-08-08T05:25:17.568Z,52.60
2016-08-08T05:26:21.237Z,52.70
2016-08-08T05:27:19.220Z,52.70
2016-08-08T05:28:15.499Z,52.80
2016-08-08T05:29:21.301Z,52.60
2016-08-08T05:30:21.048Z,52.70
2016-08-08T05:31:20.827Z,is
2016-08-08T05:32:19.733Z,52.80
2016-08-08T05:33:13.325Z,52.70
2016-08-08T05:34:20.480Z,52.70
2016-08-08T05:35:17.914Z,52.70
2016-08-08T05:36:23.102Z,52.70
2016-08-08T05:37:25.700Z,52.60
2016-08-08T05:38:23.605Z,52.70
2016-08-08T05:39:16.223Z,52.80
2016-08-08T05:40:27.090Z,52.70
2016-08-08T05:41:16.945Z,52.80
2016-08-08T05:42:29.613Z,52.80
2016-08-08T05:43:20.494Z,53.20
2016-08-08T05:44:17.959Z,52.60
2016-08-08T05:45:25.819Z,52.70
2016-08-08T05:46:19.716Z,52.70
2016-08-08T05:47:25.427Z,52.60
2016-08-08T05:48:20.007Z,52.80
2016-08-08T05:49:24.640Z,52.70
2016-08-08T05:50:17.821Z,52.70
2016-08-08T05:51:27.365Z,52.70
2016-08-08T05:52:18.632Z,52.60
2016-08-08T05:53:25.398Z,52.60
2016-08-08T05:54:20.926Z,52.60
2016-08-08T05:55:27.443Z,52.70
2016-08-08T05:56:21.644Z,52.70
2016-08-08T05:57:21.664Z,52.70
2016-08-08T05:58:12.662Z,52.60
2016-08-08T05:59:18.937Z,52.70
2016-08-08T06:00:17.190Z,52.70
2016-08-08T06:01:27.941Z,52.60
2016-08-08T06:02:24.915Z,52.70
2016-08-08T06:03:19.442Z,52.70
2016-08-08T06:04:23.887Z,52.70
2016-08-08T06:05:15.054Z,52.60
2016-08-08T06:06:17.659Z,52.70
2016-08-08T06:07:14.086Z,52.70
2016-08-08T06:08:22.919Z,52.60
2016-08-08T06:09:20.919Z,52.60
2016-08-08T06:10:20.052Z,52.50
2016-08-08T06:11:13.552Z,is
2016-08-08T06:12:26.402Z,52.60
2016-08-08T06:13:20.393Z,52.70
2016-08-08T06:14:21.761Z,52.50
2016-08-08T06:15:20.634Z,52.50
2016-08-08T06:16:21.780Z,is
2016-08-08T06:17:20.319Z,is
2016-08-08T06:18:25.832Z,52.70
2016-08-08T06:19:27.298Z,52.70
2016-08-08T06:20:17.084Z,52.70
2016-08-08T06:21:19.475Z,52.90
2016-08-08T06:22:24.552Z,52.60
2016-08-08T06:23:27.303Z,is
2016-08-08T06:24:27.886Z,52.50
2016-08-08T06:25:36.582Z,52.60
2016-08-08T06:26:27.849Z,52.60
2016-08-08T06:27:26.630Z,52.60
2016-08-08T06:28:30.016Z,52.50
2016-08-08T06:29:12.036Z,52.50
2016-08-08T06:30:13.924Z,52.60
2016-08-08T06:31:13.207Z,52.60
2016-08-08T06:32:21.728Z,52.50
2016-08-08T06:33:31.139Z,52.60
2016-08-08T06:34:20.808Z,52.50
2016-08-08T06:35:22.850Z,52.50
2016-08-08T06:36:23.363Z,is
2016-08-08T06:37:22.642Z,52.50
2016-08-08T06:38:22.629Z,52.50
2016-08-08T06:39:13.272Z,52.50
2016-08-08T06:40:18.340Z,52.50
2016-08-08T06:41:28.342Z,52.50
2016-08-08T06:42:20.531Z,52.50
2016-08-08T06:43:21.839Z,52.50
2016-08-08T06:44:20.486Z,52.60
2016-08-08T06:45:14.901Z,52.50
2016-08-08T06:46:12.374Z,52.50
2016-08-08T06:47:13.140Z,52.50
2016-08-08T06:48:27.247Z,52.40
2016-08-08T06:49:22.677Z,52.50
2016-08-08T06:50:21.924Z,52.50
2016-08-08T06:51:27.616Z,52.50
2016-08-08T06:52:21.531Z,52.60
2016-08-08T06:53:36.594Z,52.60
2016-08-08T06:54:22.444Z,52.60
2016-08-08T06:55:19.347Z,52.60
2016-08-08T06:56:13.216Z,52.70
2016-08-08T06:57:17.584Z,52.80
2016-08-08T06:58:27.639Z,52.90
2016-08-08T06:59:12.952Z,53.10
2016-08-08T07:00:34.011Z,53.20
2016-08-08T07:01:17.330Z,53.00
2016-08-08T07:02:12.189Z,53.20
2016-08-08T07:03:15.134Z,53.30
2016-08-08T07:04:31.622Z,53.30
2016-08-08T07:05:21.222Z,53.20
2016-08-08T07:06:27.300Z,53.20
2016-08-08T07:07:30.576Z,53.20
2016-08-08T07:08:31.341Z,53.20
2016-08-08T07:09:11.438Z,is
2016-08-08T07:10:35.071Z,53.20
2016-08-08T07:11:15.621Z,53.30
2016-08-08T07:12:26.198Z,53.30
2016-08-08T07:13:26.873Z,53.20
2016-08-08T07:14:23.751Z,53.30
2016-08-08T07:15:31.303Z,53.20
2016-08-08T07:16:21.292Z,53.20
2016-08-08T07:17:23.928Z,53.20
2016-08-08T07:18:11.728Z,is
2016-08-08T07:19:29.430Z,53.30
2016-08-08T07:20:27.630Z,53.20
2016-08-08T07:21:27.013Z,53.20
2016-08-08T07:22:22.994Z,53.20
2016-08-08T07:23:25.291Z,53.30
2016-08-08T07:24:19.093Z,is
2016-08-08T07:25:17.811Z,53.20
2016-08-08T07:26:26.136Z,53.30
2016-08-08T07:27:27.997Z,53.20
2016-08-08T07:28:26.653Z,53.30
2016-08-08T07:29:18.580Z,53.30
2016-08-08T07:30:26.596Z,53.20
2016-08-08T07:31:22.517Z,53.30
2016-08-08T07:32:27.281Z,53.50
2016-08-08T07:33:27.047Z,53.50
2016-08-08T07:34:24.359Z,53.50
2016-08-08T07:35:15.356Z,53.50
2016-08-08T07:36:40.904Z,53.70
2016-08-08T07:37:24.005Z,53.40
2016-08-08T07:38:21.135Z,is
2016-08-08T07:39:27.178Z,is
2016-08-08T07:40:21.042Z,53.60
2016-08-08T07:41:19.847Z,53.60
2016-08-08T07:42:24.407Z,53.70
2016-08-08T07:44:27.982Z,53.50
2016-08-08T07:45:22.110Z,53.50
2016-08-08T07:46:23.283Z,53.60
2016-08-08T07:47:12.193Z,53.50
2016-08-08T07:48:20.522Z,53.50
2016-08-08T07:49:22.443Z,53.50
2016-08-08T07:50:21.816Z,53.50
2016-08-08T07:51:21.127Z,53.50
2016-08-08T07:52:21.374Z,53.50
2016-08-08T07:53:25.728Z,53.50
2016-08-08T07:54:28.215Z,53.50
2016-08-08T07:55:27.888Z,53.30
2016-08-08T07:56:25.661Z,53.30
2016-08-08T07:57:26.355Z,is
2016-08-08T07:58:26.911Z,53.30
2016-08-08T07:59:21.328Z,53.20
2016-08-08T08:00:28.388Z,53.20
2016-08-08T08:01:28.808Z,53.30
2016-08-08T08:02:36.881Z,53.20
2016-08-08T08:03:25.069Z,is
2016-08-08T08:04:19.413Z,53.30
2016-08-08T08:05:37.421Z,53.20
2016-08-08T08:06:20.183Z,53.20
2016-08-08T08:07:32.795Z,53.20
2016-08-08T08:08:31.642Z,53.20
2016-08-08T08:09:19.781Z,is
2016-08-08T08:10:25.902Z,53.30
2016-08-08T08:11:28.141Z,53.30
2016-08-08T08:12:21.192Z,53.30
2016-08-08T08:13:29.419Z,53.30
2016-08-08T08:14:13.037Z,53.30
2016-08-08T08:15:28.613Z,53.30
2016-08-08T08:16:12.091Z,53.30
2016-08-08T08:17:15.006Z,53.30
2016-08-08T08:18:15.062Z,is
2016-08-08T08:19:20.056Z,53.30
2016-08-08T08:20:26.978Z,is
2016-08-08T08:21:20.215Z,53.40
2016-08-08T08:22:33.221Z,53.40
2016-08-08T08:23:27.040Z,is
2016-08-08T08:24:28.162Z,53.40
2016-08-08T08:25:30.569Z,53.30
2016-08-08T08:26:25.814Z,53.40
2016-08-08T08:27:22.715Z,53.30
2016-08-08T08:28:33.087Z,53.30
2016-08-08T08:29:17.204Z,53.40
2016-08-08T08:30:27.651Z,53.30
2016-08-08T08:31:21.316Z,53.40
2016-08-08T08:32:13.716Z,53.40
2016-08-08T08:33:21.402Z,53.40
2016-08-08T08:34:21.912Z,53.30
2016-08-08T08:35:23.838Z,is
2016-08-08T08:36:30.359Z,53.30
2016-08-08T08:37:22.655Z,53.30
2016-08-08T08:38:21.230Z,53.40
2016-08-08T08:39:21.854Z,53.30
2016-08-08T08:40:14.861Z,is
2016-08-08T08:41:20.789Z,53.30
2016-08-08T08:42:34.714Z,53.40
2016-08-08T08:44:31.282Z,53.30
2016-08-08T08:45:19.355Z,53.30
2016-08-08T08:46:27.074Z,53.20
2016-08-08T08:47:34.495Z,53.30
2016-08-08T08:48:20.662Z,53.30
2016-08-08T08:49:22.817Z,53.30
2016-08-08T08:50:28.097Z,53.30
2016-08-08T08:51:22.817Z,53.30
2016-08-08T08:52:25.848Z,53.30
2016-08-08T08:53:23.107Z,53.40
2016-08-08T08:54:22.277Z,53.30
2016-08-08T08:55:25.953Z,53.30
2016-08-08T08:56:15.229Z,53.30
2016-08-08T08:57:27.067Z,53.30
2016-08-08T08:59:19.976Z,53.40
2016-08-08T09:00:27.669Z,53.30
2016-08-08T09:01:23.257Z,53.30
2016-08-08T09:02:13.078Z,53.30
2016-08-08T09:03:23.756Z,53.40
2016-08-08T09:04:26.287Z,53.30
2016-08-08T09:05:13.384Z,53.30
2016-08-08T09:06:26.315Z,is
2016-08-08T09:07:28.578Z,53.30
2016-08-08T09:08:22.272Z,53.30
2016-08-08T09:09:13.631Z,53.30
2016-08-08T09:10:13.466Z,53.30
2016-08-08T09:11:27.238Z,53.40
2016-08-08T09:12:27.672Z,53.30
2016-08-08T09:14:22.980Z,53.30
2016-08-08T09:15:19.550Z,53.30
2016-08-08T09:16:20.574Z,53.30
2016-08-08T09:17:22.226Z,53.40
2016-08-08T09:18:32.953Z,53.30
2016-08-08T09:19:27.377Z,53.30
2016-08-08T09:20:27.896Z,53.30
2016-08-08T09:21:23.479Z,53.30
2016-08-08T09:22:28.608Z,53.30
2016-08-08T09:23:23.488Z,53.20
2016-08-08T09:24:21.658Z,is
2016-08-08T09:25:23.524Z,53.30
2016-08-08T09:26:26.839Z,53.30
2016-08-08T09:27:25.549Z,53.30
2016-08-08T09:29:28.259Z,53.30
2016-08-08T09:30:22.012Z,53.30
2016-08-08T09:31:29.192Z,53.20
2016-08-08T09:32:28.498Z,53.20
2016-08-08T09:33:16.206Z,53.10
2016-08-08T09:34:20.405Z,53.10
2016-08-08T09:35:27.313Z,53.20
2016-08-08T09:36:27.213Z,53.80
2016-08-08T09:37:34.401Z,53.10
2016-08-08T09:38:20.402Z,53.00
2016-08-08T09:39:25.853Z,53.20
2016-08-08T09:40:28.762Z,53.20
2016-08-08T09:41:17.951Z,53.00
2016-08-08T09:42:22.654Z,52.90
2016-08-08T09:44:27.878Z,53.00
2016-08-08T09:45:20.536Z,52.90
2016-08-08T09:46:28.942Z,53.20
2016-08-08T09:47:24.312Z,53.00
2016-08-08T09:48:12.155Z,53.00
2016-08-08T09:49:35.414Z,52.90
2016-08-08T09:50:22.049Z,52.90
2016-08-08T09:51:37.320Z,53.10
2016-08-08T09:52:26.323Z,52.90
2016-08-08T09:53:23.875Z,52.90
2016-08-08T09:54:16.961Z,52.90
2016-08-08T09:55:25.915Z,52.90
2016-08-08T09:56:20.280Z,52.80
2016-08-08T09:57:24.018Z,53.00
2016-08-08T09:58:20.897Z,53.00
2016-08-08T09:59:20.855Z,52.90
2016-08-08T10:00:26.461Z,52.90
2016-08-08T10:01:28.990Z,52.90
2016-08-08T10:02:26.390Z,52.90
2016-08-08T10:03:25.749Z,52.80
2016-08-08T10:04:28.381Z,52.90
2016-08-08T10:05:12.994Z,52.80
2016-08-08T10:06:36.017Z,52.80
2016-08-08T10:07:21.849Z,52.90
2016-08-08T10:08:12.689Z,52.80
2016-08-08T10:09:30.142Z,52.80
2016-08-08T10:10:20.825Z,52.90
2016-08-08T10:11:22.480Z,is
2016-08-08T10:12:23.420Z,is
2016-08-08T10:14:19.395Z,52.80
2016-08-08T10:15:27.859Z,52.80
2016-08-08T10:16:34.145Z,52.80
2016-08-08T10:17:25.721Z,52.80
2016-08-08T10:18:27.495Z,52.70
2016-08-08T10:19:27.263Z,52.80
2016-08-08T10:20:27.400Z,52.80
2016-08-08T10:21:24.435Z,52.70
2016-08-08T10:22:28.153Z,52.70
2016-08-08T10:23:22.797Z,52.70
2016-08-08T10:24:26.302Z,is
2016-08-08T10:25:28.811Z,52.70
2016-08-08T10:26:27.299Z,52.80
2016-08-08T10:27:29.811Z,52.70
2016-08-08T10:28:19.826Z,52.70
2016-08-08T10:29:17.591Z,52.50
2016-08-08T10:30:25.740Z,52.50
2016-08-08T10:31:20.791Z,52.50
2016-08-08T10:32:29.239Z,52.50
2016-08-08T10:33:21.628Z,52.40
2016-08-08T10:34:28.334Z,52.30
2016-08-08T10:35:32.560Z,52.50
2016-08-08T10:36:28.789Z,52.30
2016-08-08T10:37:22.234Z,is
2016-08-08T10:38:21.191Z,52.50
2016-08-08T10:39:17.633Z,52.40
2016-08-08T10:40:22.419Z,52.30
2016-08-08T10:41:27.160Z,52.30
2016-08-08T10:42:29.910Z,52.30
2016-08-08T10:43:25.838Z,52.30
2016-08-08T10:44:25.171Z,52.40
2016-08-08T10:45:22.350Z,52.30
2016-08-08T10:46:31.888Z,52.30
2016-08-08T10:47:23.306Z,52.30
2016-08-08T10:48:25.895Z,52.30
2016-08-08T10:49:18.482Z,52.40
2016-08-08T10:50:16.461Z,53.00
2016-08-08T10:51:22.832Z,52.40
2016-08-08T10:52:28.134Z,52.30
2016-08-08T10:53:28.653Z,52.40
2016-08-08T10:54:23.745Z,52.40
2016-08-08T10:55:27.027Z,52.30
2016-08-08T10:56:26.795Z,52.40
2016-08-08T10:57:26.952Z,52.40
2016-08-08T10:58:26.006Z,52.30
2016-08-08T10:59:28.947Z,52.50
2016-08-08T11:00:22.498Z,52.30
2016-08-08T11:01:26.517Z,52.40
2016-08-08T11:02:28.240Z,52.40
2016-08-08T11:03:28.784Z,52.40
2016-08-08T11:04:33.976Z,52.40
2016-08-08T11:05:15.673Z,is
2016-08-08T11:06:28.470Z,52.40
2016-08-08T11:07:27.085Z,52.90
2016-08-08T11:08:25.918Z,52.40
2016-08-08T11:09:23.268Z,52.40
2016-08-08T11:10:17.479Z,is
2016-08-08T11:11:21.459Z,52.70
2016-08-08T11:12:24.211Z,52.70
2016-08-08T11:13:11.891Z,52.60
2016-08-08T11:14:14.100Z,is
2016-08-08T11:15:22.654Z,52.60
2016-08-08T11:16:27.930Z,52.70
2016-08-08T11:17:10.735Z,is
2016-08-08T11:18:28.762Z,52.60
2016-08-08T11:19:26.908Z,52.70
2016-08-08T11:20:26.988Z,52.80
2016-08-08T11:21:23.988Z,52.60
2016-08-08T11:22:24.932Z,52.60
2016-08-08T11:23:25.265Z,52.60
2016-08-08T11:24:25.109Z,52.60
2016-08-08T11:25:18.108Z,52.70
2016-08-08T11:26:15.089Z,52.60
2016-08-08T11:27:27.017Z,52.60
2016-08-08T11:28:19.709Z,52.60
2016-08-08T11:29:28.144Z,52.70
2016-08-08T11:30:26.383Z,52.60
2016-08-08T11:31:17.902Z,52.60
2016-08-08T11:32:21.496Z,51.80
2016-08-08T11:33:29.437Z,52.60
2016-08-08T11:34:21.566Z,52.50
2016-08-08T11:35:27.789Z,52.50
2016-08-08T11:36:13.623Z,52.50
2016-08-08T11:37:28.899Z,52.60
2016-08-08T11:38:13.900Z,52.50
2016-08-08T11:39:16.811Z,52.60
2016-08-08T11:40:22.399Z,52.50
2016-08-08T11:41:32.567Z,52.50
2016-08-08T11:42:29.018Z,52.40
2016-08-08T11:43:32.695Z,52.50
2016-08-08T11:44:26.920Z,52.50
2016-08-08T11:45:26.204Z,52.40
2016-08-08T11:46:18.345Z,52.40
2016-08-08T11:47:34.601Z,52.50
2016-08-08T11:48:21.560Z,52.50
2016-08-08T11:49:27.404Z,52.60
2016-08-08T11:50:17.411Z,52.50
2016-08-08T11:51:12.215Z,52.60
2016-08-08T11:52:30.154Z,52.70
2016-08-08T11:53:27.938Z,52.70
2016-08-08T11:54:26.932Z,52.70
2016-08-08T11:55:12.525Z,is
2016-08-08T11:56:24.472Z,52.70
2016-08-08T11:57:28.631Z,52.70
2016-08-08T11:58:13.336Z,52.60
2016-08-08T11:59:32.220Z,52.70
2016-08-08T12:00:26.627Z,52.70
2016-08-08T12:01:10.324Z,is
2016-08-08T12:02:14.478Z,52.70
2016-08-08T12:03:31.101Z,52.70
2016-08-08T12:04:27.539Z,52.70
2016-08-08T12:05:27.126Z,52.60
2016-08-08T12:06:17.069Z,52.80
2016-08-08T12:07:17.763Z,52.70
2016-08-08T12:08:30.611Z,52.70
2016-08-08T12:09:18.634Z,52.70
2016-08-08T12:10:26.584Z,52.70
2016-08-08T12:11:24.862Z,52.70
2016-08-08T12:12:13.404Z,52.70
2016-08-08T12:13:27.128Z,52.60
2016-08-08T12:15:14.357Z,52.70
2016-08-08T12:16:13.344Z,52.60
2016-08-08T12:17:28.620Z,52.70
2016-08-08T12:18:18.768Z,52.70
2016-08-08T12:19:27.621Z,52.70
2016-08-08T12:20:16.310Z,52.60
2016-08-08T12:21:13.675Z,52.70
2016-08-08T12:22:22.563Z,52.60
2016-08-08T12:23:20.258Z,52.60
2016-08-08T12:24:20.726Z,52.50
2016-08-08T12:25:20.335Z,52.70
2016-08-08T12:26:20.335Z,52.60
2016-08-08T12:27:22.600Z,52.60
2016-08-08T12:28:23.010Z,is
2016-08-08T12:29:24.429Z,52.60
2016-08-08T12:30:32.683Z,52.50
2016-08-08T12:31:12.079Z,52.50
2016-08-08T12:32:22.670Z,52.50
2016-08-08T12:33:22.290Z,52.60
2016-08-08T12:34:23.712Z,is
2016-08-08T12:35:14.436Z,52.50
2016-08-08T12:36:28.873Z,52.60
2016-08-08T12:37:24.644Z,52.60
2016-08-08T12:38:22.280Z,52.60
2016-08-08T12:39:28.629Z,52.50
2016-08-08T12:40:22.641Z,52.40
2016-08-08T12:41:26.124Z,52.50
2016-08-08T12:42:33.174Z,52.50
2016-08-08T12:43:18.498Z,is
2016-08-08T12:45:26.322Z,52.50
2016-08-08T12:46:19.941Z,52.50
2016-08-08T12:47:26.649Z,52.40
2016-08-08T12:48:18.502Z,52.50
2016-08-08T12:49:24.244Z,52.50
2016-08-08T12:50:13.663Z,52.40
2016-08-08T12:51:22.527Z,52.30
2016-08-08T12:52:18.330Z,52.40
2016-08-08T12:53:11.226Z,is
2016-08-08T12:54:23.226Z,52.30
2016-08-08T12:55:21.203Z,52.40
2016-08-08T12:56:18.650Z,52.40
2016-08-08T12:57:28.964Z,52.40
2016-08-08T12:58:18.782Z,is
2016-08-08T12:59:18.637Z,52.40
2016-08-08T13:00:16.351Z,is
2016-08-08T13:01:33.260Z,52.40
2016-08-08T13:02:22.368Z,52.40
2016-08-08T13:03:23.266Z,52.40
2016-08-08T13:04:27.800Z,52.50
2016-08-08T13:05:33.289Z,52.50
2016-08-08T13:06:13.326Z,52.40
2016-08-08T13:07:13.955Z,52.50
2016-08-08T13:08:27.364Z,52.40
2016-08-08T13:09:25.048Z,52.30
2016-08-08T13:10:28.930Z,52.40
2016-08-08T13:11:30.465Z,52.30
2016-08-08T13:12:24.171Z,52.40